Time (yr/mo/day/hr) Wind Speed at 50 metres (Glencore Tower; km/hr) Wind Direction at 50 metres (Glencore Tower; degrees) Temperature (oC) SO2 Dispersion Conditions Mixing Height (m)
2020 01 20 13 9 272 -10 Slightly unstable 969
2020 01 20 14 14 293 -8 Slightly unstable 993
2020 01 20 15 16 298 -6 Slightly unstable 969
2020 01 20 16 16 302 -6 Neutral 713
2020 01 20 17 11 298 -7 Neutral 381
2020 01 20 18 11 295 -8 Stable 398
2020 01 20 19 12 291 -8 Slightly stable 445
2020 01 20 20 12 288 -9 Stable 426
2020 01 20 21 12 289 -9 Stable 417
2020 01 20 22 12 286 -9 Stable 441
2020 01 20 23 13 287 -9 Slightly stable 486
2020 01 21 00 12 283 -10 Stable 425
2020 01 21 01 12 272 -10 Stable 401
2020 01 21 02 13 266 -10 Slightly stable 465
2020 01 21 03 13 263 -10 Slightly stable 489
2020 01 21 04 13 260 -10 Slightly stable 533
2020 01 21 05 14 258 -10 Slightly stable 585
2020 01 21 06 16 254 -10 Slightly stable 814
2020 01 21 07 17 255 -10 Slightly stable 1003
2020 01 21 08 19 252 -10 Slightly stable 1176
2020 01 21 09 21 254 -8 Neutral 1441
2020 01 21 10 22 258 -8 Neutral 1238
2020 01 21 11 24 258 -7 Neutral 1387
2020 01 21 12 24 257 -6 Neutral 1389
2020 01 21 13 25 256 -5 Neutral 1256